Time;durP1;ratioP1;P1;durP2;ratioP2;P2;SDS_P1;SDS_P2;PMS_P1;PMS_P2;Temp;Humidity;BMP_temperature;BMP_pressure;BME280_temperature;BME280_humidity;BME280_pressure;Samples;Min_cycle;Max_cycle;Signal;HPM_P1;HPM_P2
2022/12/08 00:01:05;;;;;;;10.45;5.68;;;2.10;99.90;;;;;;5040180;28;20033;-73
2022/12/08 00:03:31;;;;;;;13.00;4.90;;;2.10;99.90;;;;;;5049407;28;20049;-72
2022/12/08 00:11:25;;;;;;;15.02;6.40;;;2.20;99.90;;;;;;5032720;28;20527;-73
2022/12/08 00:13:51;;;;;;;10.73;5.90;;;2.10;99.90;;;;;;5031207;28;20068;-72
2022/12/08 00:16:17;;;;;;;12.20;5.45;;;2.10;99.90;;;;;;5041673;28;20032;-72
2022/12/08 00:18:43;;;;;;;15.70;6.07;;;2.10;99.90;;;;;;5045559;28;20057;-72
2022/12/08 00:21:08;;;;;;;12.27;6.55;;;2.10;99.90;;;;;;5050632;28;20041;-72
2022/12/08 00:23:34;;;;;;;14.88;6.60;;;2.10;99.90;;;;;;5039582;28;20396;-72
2022/12/08 00:26:04;;;;;;;14.63;6.75;;;2.10;99.90;;;;;;5033785;28;20041;-72
2022/12/08 00:28:31;;;;;;;13.00;6.53;;;2.10;99.90;;;;;;5045442;28;20041;-73
2022/12/08 00:30:57;;;;;;;12.43;6.93;;;2.00;99.90;;;;;;5056214;28;20044;-72
2022/12/08 00:33:23;;;;;;;12.60;6.90;;;2.10;99.90;;;;;;5022276;28;20045;-73
2022/12/08 00:35:48;;;;;;;13.80;6.75;;;2.10;99.90;;;;;;5036527;28;20041;-73
2022/12/08 00:38:14;;;;;;;16.48;7.00;;;2.10;99.90;;;;;;5036687;28;20084;-73
2022/12/08 00:40:46;;;;;;;13.45;6.60;;;2.10;99.90;;;;;;5036520;28;20435;-73
2022/12/08 00:43:13;;;;;;;12.15;6.40;;;2.00;99.90;;;;;;5036445;28;20155;-73
2022/12/08 00:45:39;;;;;;;14.85;7.22;;;1.90;99.90;;;;;;5036233;28;20037;-73
2022/12/08 00:48:05;;;;;;;15.68;7.53;;;1.90;99.90;;;;;;5036226;28;20067;-72
2022/12/08 00:50:31;;;;;;;11.77;6.60;;;1.90;99.90;;;;;;5041056;28;20140;-73
2022/12/08 00:52:57;;;;;;;14.98;7.28;;;1.80;99.90;;;;;;5038292;28;20128;-73
2022/12/08 00:55:22;;;;;;;16.55;7.18;;;1.80;99.90;;;;;;5056146;28;20037;-73
2022/12/08 00:57:48;;;;;;;14.45;7.07;;;1.80;99.90;;;;;;5056128;28;20128;-73
2022/12/08 01:00:14;;;;;;;16.13;7.22;;;1.80;99.90;;;;;;5056060;28;20037;-73
2022/12/08 01:02:40;;;;;;;12.88;6.18;;;1.80;99.90;;;;;;5055971;28;20385;-73
2022/12/08 01:05:07;;;;;;;16.25;7.50;;;1.80;99.90;;;;;;5038179;28;20047;-72
2022/12/08 01:07:33;;;;;;;19.05;7.43;;;1.70;99.90;;;;;;5055905;28;20048;-73
2022/12/08 01:09:58;;;;;;;12.07;6.88;;;1.70;99.90;;;;;;5037911;28;20068;-73
2022/12/08 01:12:24;;;;;;;13.65;6.78;;;1.70;99.90;;;;;;5055805;28;20065;-73
2022/12/08 01:14:50;;;;;;;11.55;6.22;;;1.60;99.90;;;;;;5055871;28;20045;-73
2022/12/08 01:17:15;;;;;;;16.20;8.30;;;1.70;99.90;;;;;;5055748;28;20037;-73
2022/12/08 01:19:41;;;;;;;18.10;6.90;;;1.60;99.90;;;;;;5055892;28;20052;-72
2022/12/08 01:22:07;;;;;;;14.73;7.75;;;1.60;99.90;;;;;;5055678;28;20037;-72
2022/12/08 01:24:33;;;;;;;12.80;7.57;;;1.60;99.90;;;;;;5055483;28;20079;-72
2022/12/08 01:26:58;;;;;;;13.30;6.57;;;1.60;99.90;;;;;;5054806;28;20387;-73
2022/12/08 01:29:25;;;;;;;16.45;7.85;;;1.60;99.90;;;;;;5055204;28;20044;-73
2022/12/08 01:31:51;;;;;;;14.07;6.88;;;1.60;99.90;;;;;;5055365;28;20123;-73
2022/12/08 01:34:17;;;;;;;15.13;7.18;;;1.60;99.90;;;;;;5055286;28;20175;-72
2022/12/08 01:36:43;;;;;;;13.45;7.38;;;1.60;99.90;;;;;;5055539;28;20052;-73
2022/12/08 01:39:14;;;;;;;13.95;6.97;;;1.60;99.90;;;;;;5030165;28;20049;-71
2022/12/08 01:41:42;;;;;;;13.52;6.93;;;1.60;99.90;;;;;;5017568;28;20044;-72
2022/12/08 01:44:09;;;;;;;14.07;7.13;;;1.60;99.90;;;;;;5017410;28;20535;-72
2022/12/08 01:46:40;;;;;;;16.80;8.00;;;1.60;99.90;;;;;;5035046;28;20416;-73
2022/12/08 01:49:08;;;;;;;14.05;7.28;;;1.60;99.90;;;;;;5035366;28;20119;-72
2022/12/08 01:51:40;;;;;;;11.70;7.25;;;1.50;99.90;;;;;;5017335;28;20099;-73
2022/12/08 01:54:07;;;;;;;13.18;7.35;;;1.60;99.90;;;;;;5035032;28;20044;-73
2022/12/08 01:56:42;;;;;;;16.45;7.75;;;1.60;99.90;;;;;;5034755;28;20041;-72
2022/12/08 01:59:09;;;;;;;14.35;7.38;;;1.60;99.90;;;;;;5017344;28;20045;-71
2022/12/08 02:01:35;;;;;;;12.88;6.57;;;1.60;99.90;;;;;;5035197;28;20063;-73
2022/12/08 02:04:03;;;;;;;13.07;6.80;;;1.60;99.90;;;;;;5034542;28;20466;-72
2022/12/08 02:06:33;;;;;;;12.40;6.78;;;1.70;99.90;;;;;;5017024;28;20033;-72
2022/12/08 02:09:02;;;;;;;15.45;6.40;;;1.70;99.90;;;;;;5034874;28;20102;-73
2022/12/08 02:11:28;;;;;;;14.82;7.25;;;1.70;99.90;;;;;;5016726;28;20493;-73
2022/12/08 02:13:56;;;;;;;12.48;6.75;;;1.70;99.90;;;;;;5034606;28;20041;-73
2022/12/08 02:16:30;;;;;;;16.15;6.93;;;1.70;99.90;;;;;;5015399;28;20128;-72
2022/12/08 02:19:15;;;;;;;16.70;8.25;;;1.70;99.90;;;;;;5032430;28;20057;-72
2022/12/08 02:21:58;;;;;;;16.90;7.97;;;1.70;99.90;;;;;;5033635;28;20057;-72
2022/12/08 02:24:57;;;;;;;16.13;7.20;;;1.70;99.90;;;;;;5016490;28;20033;-73
2022/12/08 02:27:45;;;;;;;13.45;6.90;;;1.60;99.90;;;;;;5034188;28;20417;-73
2022/12/08 02:30:29;;;;;;;16.05;7.95;;;1.60;99.90;;;;;;5023951;28;20045;-72
2022/12/08 02:33:26;;;;;;;16.13;7.38;;;1.70;99.90;;;;;;5033287;28;20037;-72
2022/12/08 02:36:03;;;;;;;18.77;9.20;;;1.60;99.90;;;;;;5016545;28;20040;-73
2022/12/08 02:38:47;;;;;;;17.33;8.60;;;1.50;99.90;;;;;;5016135;28;20033;-73
2022/12/08 02:41:44;;;;;;;19.10;9.02;;;1.50;99.90;;;;;;5016550;28;20041;-73
2022/12/08 02:44:50;;;;;;;16.40;8.90;;;1.50;99.90;;;;;;5034225;28;20034;-73
2022/12/08 02:47:21;;;;;;;17.48;8.25;;;1.50;99.90;;;;;;4953749;29;20042;-73
2022/12/08 02:49:46;;;;;;;;;;;1.60;99.90;;;;;;5006481;28;20033;-72
2022/12/08 02:52:12;;;;;;;14.43;7.63;;;1.60;99.90;;;;;;5034232;28;19955;-73
2022/12/08 02:54:41;;;;;;;18.10;9.40;;;1.60;99.90;;;;;;5016223;28;20107;-72
2022/12/08 02:57:19;;;;;;;21.80;9.32;;;1.50;99.90;;;;;;5033695;28;20535;-72
2022/12/08 03:00:09;;;;;;;18.67;9.10;;;1.50;99.90;;;;;;5033851;28;20107;-72
2022/12/08 03:03:12;;;;;;;21.33;9.75;;;1.50;99.90;;;;;;5033915;28;20033;-73
2022/12/08 03:06:05;;;;;;;19.17;9.73;;;1.30;99.90;;;;;;5030863;28;20045;-72
2022/12/08 03:08:58;;;;;;;18.10;9.07;;;1.30;99.90;;;;;;5030767;28;20045;-72
2022/12/08 03:11:32;;;;;;;17.83;9.35;;;1.20;99.90;;;;;;5033821;28;20099;-72
2022/12/08 03:14:01;;;;;;;20.42;10.05;;;1.20;99.90;;;;;;5033893;28;20049;-72
2022/12/08 03:16:30;;;;;;;21.13;9.63;;;1.20;99.90;;;;;;5033870;28;20053;-73
2022/12/08 03:19:08;;;;;;;19.02;9.52;;;1.10;99.90;;;;;;5033785;28;20061;-73
2022/12/08 03:21:35;;;;;;;15.05;8.35;;;1.10;99.90;;;;;;5033838;28;20500;-73
2022/12/08 03:24:05;;;;;;;17.88;9.27;;;1.20;99.90;;;;;;5016239;28;20084;-72
2022/12/08 03:26:42;;;;;;;22.90;10.50;;;1.10;99.90;;;;;;5033353;28;20029;-72
2022/12/08 03:29:08;;;;;;;19.98;9.68;;;1.10;99.90;;;;;;5033785;28;20602;-73
2022/12/08 03:31:40;;;;;;;18.55;9.68;;;1.10;99.90;;;;;;5016006;28;20047;-73
2022/12/08 03:34:08;;;;;;;30.05;12.15;;;1.10;99.90;;;;;;5033726;28;20045;-73
2022/12/08 03:36:34;;;;;;;21.27;10.95;;;1.10;99.90;;;;;;5033588;28;20026;-72
2022/12/08 03:39:00;;;;;;;31.60;13.35;;;1.10;99.90;;;;;;5015727;28;20056;-72
2022/12/08 03:41:25;;;;;;;23.23;10.88;;;1.10;99.90;;;;;;5033643;28;20075;-72
2022/12/08 03:43:54;;;;;;;21.60;10.27;;;1.10;99.90;;;;;;5033565;28;20049;-72
2022/12/08 03:46:21;;;;;;;20.27;10.65;;;0.90;99.90;;;;;;5033553;28;20091;-72
2022/12/08 03:48:47;;;;;;;18.45;9.75;;;0.80;99.90;;;;;;5033587;28;20056;-72
2022/12/08 03:51:14;;;;;;;18.45;9.82;;;0.70;99.90;;;;;;5034878;28;20065;-72
2022/12/08 03:53:40;;;;;;;22.58;10.40;;;0.80;99.90;;;;;;5037465;28;20044;-72
2022/12/08 03:56:18;;;;;;;16.33;9.20;;;0.90;99.90;;;;;;5019643;28;20046;-72
2022/12/08 03:58:44;;;;;;;19.70;9.52;;;0.90;99.90;;;;;;5037340;28;20140;-72
2022/12/08 04:01:11;;;;;;;20.10;10.30;;;0.90;99.90;;;;;;5037239;28;20128;-71
2022/12/08 04:03:37;;;;;;;19.63;9.65;;;1.00;99.90;;;;;;5037170;28;20041;-71
2022/12/08 04:06:02;;;;;;;22.00;10.60;;;1.10;99.90;;;;;;5019297;28;20088;-71
2022/12/08 04:08:28;;;;;;;18.83;9.32;;;1.00;99.90;;;;;;5019420;28;20045;-71
2022/12/08 04:10:54;;;;;;;19.95;9.77;;;1.00;99.90;;;;;;5037491;28;20037;-72
2022/12/08 04:13:19;;;;;;;18.42;9.93;;;0.90;99.90;;;;;;5037120;28;20064;-72
2022/12/08 04:15:46;;;;;;;20.48;8.93;;;0.90;99.90;;;;;;5036964;28;20622;-72
2022/12/08 04:18:13;;;;;;;16.92;8.73;;;0.80;99.90;;;;;;5018939;28;20500;-71
2022/12/08 04:20:40;;;;;;;16.05;8.05;;;0.70;99.90;;;;;;5036162;28;20049;-71
2022/12/08 04:23:06;;;;;;;15.88;8.27;;;0.80;99.90;;;;;;5036408;28;20118;-71
2022/12/08 04:25:32;;;;;;;18.88;9.57;;;0.80;99.90;;;;;;5036618;28;20400;-71
2022/12/08 04:27:58;;;;;;;17.58;9.82;;;0.80;99.90;;;;;;5036877;28;20041;-71
2022/12/08 04:30:23;;;;;;;17.85;9.35;;;0.90;99.90;;;;;;5036600;28;20049;-71
2022/12/08 04:32:49;;;;;;;17.20;9.38;;;0.80;99.90;;;;;;5036749;28;20061;-71
2022/12/08 04:35:16;;;;;;;15.40;8.35;;;0.80;99.90;;;;;;5036629;28;20140;-71
2022/12/08 04:37:43;;;;;;;16.52;8.45;;;0.80;99.90;;;;;;5036615;28;20037;-71
2022/12/08 04:40:09;;;;;;;16.60;8.68;;;0.80;99.90;;;;;;5036644;28;20053;-71
2022/12/08 04:42:36;;;;;;;18.02;9.07;;;0.90;99.90;;;;;;5036518;28;20033;-72
2022/12/08 04:45:02;;;;;;;14.05;8.30;;;0.90;99.90;;;;;;5036374;28;20096;-71
2022/12/08 04:47:28;;;;;;;13.38;7.72;;;1.00;99.90;;;;;;5036154;28;20069;-71
2022/12/08 04:49:54;;;;;;;14.15;8.27;;;1.00;99.90;;;;;;5036142;28;20084;-71
2022/12/08 04:52:20;;;;;;;14.15;8.00;;;1.00;99.90;;;;;;5036024;28;20076;-72
2022/12/08 04:54:45;;;;;;;18.58;8.98;;;1.00;99.90;;;;;;5036162;28;20064;-71
2022/12/08 04:57:11;;;;;;;12.93;8.07;;;1.00;99.90;;;;;;5036086;28;20068;-70
2022/12/08 04:59:37;;;;;;;16.60;8.85;;;1.00;99.90;;;;;;5018269;28;20049;-71
2022/12/08 05:02:03;;;;;;;19.63;10.25;;;1.00;99.90;;;;;;5018081;28;20493;-70
2022/12/08 05:04:28;;;;;;;20.77;10.18;;;1.10;99.90;;;;;;5035952;28;20512;-71
2022/12/08 05:06:54;;;;;;;20.75;10.25;;;1.00;99.90;;;;;;5036059;28;20496;-70
2022/12/08 05:09:20;;;;;;;19.48;9.73;;;1.00;99.90;;;;;;5036128;28;20044;-72
2022/12/08 05:11:46;;;;;;;16.17;8.90;;;1.10;99.90;;;;;;5036011;28;20056;-71
2022/12/08 05:14:14;;;;;;;16.02;8.73;;;1.10;99.90;;;;;;5035930;28;20048;-71
2022/12/08 05:16:40;;;;;;;18.33;8.63;;;1.10;99.90;;;;;;5017759;28;20046;-70
2022/12/08 05:19:06;;;;;;;16.50;8.95;;;1.10;99.90;;;;;;5017894;28;20049;-71
2022/12/08 05:21:32;;;;;;;16.23;9.05;;;1.10;99.90;;;;;;5035752;28;20520;-71
2022/12/08 05:23:58;;;;;;;24.08;11.30;;;1.10;99.90;;;;;;5017987;28;20128;-70
2022/12/08 05:26:24;;;;;;;20.70;10.40;;;1.00;99.90;;;;;;5035663;28;20536;-70
2022/12/08 05:28:50;;;;;;;20.02;10.82;;;0.90;99.90;;;;;;5035798;28;20038;-70
2022/12/08 05:31:16;;;;;;;20.30;9.98;;;1.00;99.90;;;;;;5035539;28;20159;-70
2022/12/08 05:33:43;;;;;;;25.52;12.15;;;1.00;99.90;;;;;;5018013;28;20045;-70
2022/12/08 05:36:12;;;;;;;28.77;12.25;;;1.00;99.90;;;;;;5035357;28;20382;-70
2022/12/08 05:38:38;;;;;;;28.67;12.85;;;1.10;99.90;;;;;;5035039;28;20455;-71
2022/12/08 05:41:08;;;;;;;24.42;11.50;;;1.10;99.90;;;;;;5035221;28;20067;-70
2022/12/08 05:43:34;;;;;;;25.88;12.82;;;1.00;99.90;;;;;;5035290;28;20038;-73
2022/12/08 05:46:00;;;;;;;32.60;13.07;;;1.20;99.90;;;;;;5035138;28;20128;-70
2022/12/08 05:48:26;;;;;;;32.78;13.95;;;1.10;99.90;;;;;;5017456;28;20065;-70
2022/12/08 05:50:52;;;;;;;35.47;14.35;;;1.10;99.90;;;;;;5035207;28;20110;-72
2022/12/08 05:53:19;;;;;;;30.45;13.57;;;1.10;99.90;;;;;;5035261;28;20124;-70
2022/12/08 05:55:45;;;;;;;39.50;15.82;;;1.20;99.90;;;;;;5035158;28;20045;-69
2022/12/08 05:58:13;;;;;;;38.40;14.65;;;1.20;99.90;;;;;;5035022;28;20493;-70
2022/12/08 06:00:40;;;;;;;30.67;13.13;;;1.20;99.90;;;;;;5034893;28;20037;-69
2022/12/08 06:03:07;;;;;;;23.00;11.88;;;1.20;99.90;;;;;;5017220;28;20041;-69
2022/12/08 06:05:34;;;;;;;27.80;11.88;;;1.20;99.90;;;;;;5034849;28;20386;-69
2022/12/08 06:07:59;;;;;;;24.73;11.70;;;1.20;99.90;;;;;;5034777;28;20500;-69
2022/12/08 06:10:25;;;;;;;24.92;12.35;;;1.20;99.90;;;;;;5034799;28;20120;-71
2022/12/08 06:12:51;;;;;;;24.40;12.85;;;1.20;99.90;;;;;;5034729;28;20041;-71
2022/12/08 06:15:17;;;;;;;30.95;14.45;;;1.10;99.90;;;;;;5034259;28;20033;-69
2022/12/08 06:17:43;;;;;;;29.27;13.50;;;1.10;99.90;;;;;;5034780;28;20041;-70
2022/12/08 06:20:09;;;;;;;24.35;12.20;;;1.20;99.90;;;;;;5034939;28;20481;-70
2022/12/08 06:22:36;;;;;;;22.65;11.73;;;1.10;99.90;;;;;;5034536;28;20091;-70
2022/12/08 06:25:02;;;;;;;20.65;10.93;;;1.10;99.90;;;;;;5034716;28;20037;-75
2022/12/08 06:27:27;;;;;;;30.73;13.30;;;1.10;99.90;;;;;;5034568;28;20361;-70
2022/12/08 06:29:53;;;;;;;32.28;15.40;;;1.20;99.90;;;;;;5034525;28;20380;-72
2022/12/08 06:32:19;;;;;;;30.63;14.45;;;1.20;99.90;;;;;;5034342;28;20395;-71
2022/12/08 06:34:45;;;;;;;47.72;19.73;;;1.20;99.90;;;;;;5034353;28;20049;-70
2022/12/08 06:37:11;;;;;;;430.73;137.80;;;1.20;99.90;;;;;;5016488;28;20480;-70
2022/12/08 06:39:36;;;;;;;399.52;152.50;;;1.20;99.90;;;;;;5033886;28;20752;-72
2022/12/08 06:44:47;;;;;;;38.40;19.45;;;1.20;99.90;;;;;;5034364;28;20048;-70
2022/12/08 06:47:12;;;;;;;32.35;17.42;;;1.20;99.90;;;;;;5034289;28;20167;-74
2022/12/08 06:49:39;;;;;;;28.98;16.75;;;1.20;99.90;;;;;;5016553;28;20091;-70
2022/12/08 06:52:04;;;;;;;50.13;26.77;;;1.10;99.90;;;;;;5033914;28;20040;-70
2022/12/08 06:54:34;;;;;;;41.50;18.73;;;1.20;99.90;;;;;;5019831;28;20045;-69
2022/12/08 06:57:00;;;;;;;52.92;27.67;;;1.20;99.90;;;;;;4996210;28;20038;-70
2022/12/08 06:59:26;;;;;;;33.40;19.20;;;1.10;99.90;;;;;;5032987;28;20484;-69
2022/12/08 07:01:52;;;;;;;31.98;16.60;;;1.10;99.90;;;;;;5006629;28;20037;-72
2022/12/08 07:04:18;;;;;;;28.70;14.68;;;1.10;99.90;;;;;;5051775;28;20043;-70
2022/12/08 07:06:43;;;;;;;27.52;13.95;;;1.20;99.90;;;;;;5033922;28;20045;-70
2022/12/08 07:09:09;;;;;;;31.00;14.43;;;1.10;99.90;;;;;;5020485;28;20038;-75
2022/12/08 07:11:37;;;;;;;31.23;16.02;;;1.30;99.90;;;;;;5011876;28;20045;-76
2022/12/08 07:14:03;;;;;;;25.05;13.32;;;1.20;99.90;;;;;;5031522;28;20451;-76
2022/12/08 07:16:29;;;;;;;51.10;24.48;;;1.00;99.90;;;;;;5015244;28;20044;-70
2022/12/08 07:18:54;;;;;;;30.52;13.95;;;1.20;99.90;;;;;;5033137;28;20416;-76
2022/12/08 07:21:20;;;;;;;51.85;29.55;;;1.10;99.90;;;;;;5032391;28;20116;-73
2022/12/08 07:23:47;;;;;;;30.42;14.95;;;1.00;99.90;;;;;;5033043;28;20079;-70
2022/12/08 07:26:13;;;;;;;31.40;15.13;;;1.10;99.90;;;;;;5034271;28;20120;-70
2022/12/08 07:28:41;;;;;;;33.72;16.48;;;1.10;99.90;;;;;;5037850;28;20111;-71
2022/12/08 07:31:14;;;;;;;26.67;12.82;;;1.00;99.90;;;;;;5037969;28;20044;-70
2022/12/08 07:33:40;;;;;;;48.83;24.63;;;1.00;99.90;;;;;;5037931;28;20046;-70
2022/12/08 07:36:07;;;;;;;36.65;19.42;;;1.00;99.90;;;;;;5019947;28;20128;-76
2022/12/08 07:38:33;;;;;;;27.30;15.35;;;1.00;99.90;;;;;;5037562;28;20121;-76
2022/12/08 07:40:58;;;;;;;22.67;12.02;;;1.00;99.90;;;;;;5037676;28;20041;-71
2022/12/08 07:43:24;;;;;;;20.80;10.93;;;1.10;99.90;;;;;;5037588;28;20033;-73
2022/12/08 07:45:50;;;;;;;22.73;12.15;;;1.10;99.90;;;;;;5037553;28;20405;-70
2022/12/08 07:48:16;;;;;;;27.73;15.00;;;1.00;99.90;;;;;;5037387;28;20500;-70
2022/12/08 07:50:42;;;;;;;18.08;10.70;;;0.90;99.90;;;;;;5037610;28;20026;-75
2022/12/08 07:53:08;;;;;;;21.05;11.38;;;0.80;99.90;;;;;;5037425;28;20049;-70
2022/12/08 07:55:38;;;;;;;17.60;9.88;;;0.80;99.90;;;;;;5037390;28;20029;-70
2022/12/08 07:58:03;;;;;;;24.05;11.23;;;0.80;99.90;;;;;;5037298;28;20523;-75
2022/12/08 08:00:29;;;;;;;26.63;13.25;;;0.70;99.90;;;;;;5037394;28;20034;-71
2022/12/08 08:02:55;;;;;;;23.02;11.93;;;0.80;99.90;;;;;;5037332;28;20087;-70
2022/12/08 08:05:21;;;;;;;34.28;17.58;;;0.90;99.90;;;;;;5037082;28;20381;-70
2022/12/08 08:07:47;;;;;;;31.98;17.23;;;1.00;99.90;;;;;;5037084;28;20037;-71
2022/12/08 08:10:13;;;;;;;20.50;11.82;;;1.10;99.90;;;;;;5037136;28;20041;-70
2022/12/08 08:12:39;;;;;;;20.08;11.73;;;1.20;99.90;;;;;;5037183;28;20045;-71
2022/12/08 08:15:06;;;;;;;24.92;13.60;;;1.10;99.90;;;;;;5037100;28;20041;-70
2022/12/08 08:17:33;;;;;;;25.83;13.43;;;1.10;99.90;;;;;;5037052;28;20029;-71
2022/12/08 08:19:59;;;;;;;19.40;11.27;;;1.10;99.90;;;;;;5036974;28;20045;-71
2022/12/08 08:22:25;;;;;;;19.75;11.00;;;1.10;99.90;;;;;;5019134;28;20522;-71
2022/12/08 08:24:52;;;;;;;19.08;10.35;;;1.10;99.90;;;;;;5019045;28;20404;-76
2022/12/08 08:27:18;;;;;;;21.35;11.93;;;1.10;99.90;;;;;;5036815;28;20057;-72
2022/12/08 08:29:43;;;;;;;21.15;11.68;;;1.10;99.90;;;;;;5019036;28;20139;-71
2022/12/08 08:32:10;;;;;;;18.77;11.02;;;1.00;99.90;;;;;;5036878;28;20049;-72
2022/12/08 08:34:35;;;;;;;19.75;10.88;;;0.80;99.90;;;;;;5036664;28;20408;-77
2022/12/08 08:37:01;;;;;;;21.88;11.30;;;0.90;99.90;;;;;;5018308;28;20033;-71
2022/12/08 08:39:29;;;;;;;18.38;10.95;;;0.90;99.90;;;;;;5036527;28;20053;-72
2022/12/08 08:41:54;;;;;;;20.48;11.27;;;1.00;99.90;;;;;;5036551;28;20485;-72
2022/12/08 08:44:20;;;;;;;20.00;12.00;;;1.10;99.90;;;;;;5036492;28;20030;-72
2022/12/08 08:46:46;;;;;;;19.85;10.65;;;1.10;99.90;;;;;;5036411;28;20042;-72
2022/12/08 08:49:12;;;;;;;18.65;10.73;;;1.00;99.90;;;;;;5036362;28;20068;-72
2022/12/08 08:51:37;;;;;;;19.13;10.70;;;1.10;99.90;;;;;;5018952;28;20554;-72
2022/12/08 08:54:03;;;;;;;23.52;12.38;;;1.20;99.90;;;;;;5036470;28;20051;-72
2022/12/08 08:56:29;;;;;;;20.40;12.73;;;1.30;99.90;;;;;;5036319;28;20047;-72
2022/12/08 08:58:55;;;;;;;22.38;11.88;;;1.30;99.90;;;;;;5018373;28;20129;-73
2022/12/08 09:01:26;;;;;;;20.00;11.52;;;1.30;99.90;;;;;;5036225;28;20121;-73
2022/12/08 09:03:52;;;;;;;;;;;1.40;99.90;;;;;;5036478;28;20039;-73
2022/12/08 09:06:19;;;;;;;19.50;11.52;;;1.40;99.90;;;;;;5036121;28;19920;-73
2022/12/08 09:08:45;;;;;;;21.65;12.07;;;1.30;99.90;;;;;;5036065;28;20038;-73
2022/12/08 09:11:11;;;;;;;22.42;12.52;;;1.40;99.90;;;;;;5036064;28;20191;-73
2022/12/08 09:13:38;;;;;;;21.58;11.93;;;1.30;99.90;;;;;;5036023;28;20187;-73
2022/12/08 09:16:06;;;;;;;20.17;11.57;;;1.30;99.90;;;;;;5018186;28;20087;-72
2022/12/08 09:18:32;;;;;;;23.30;12.65;;;1.30;99.90;;;;;;5035755;28;20404;-73
2022/12/08 09:21:15;;;;;;;23.13;12.07;;;1.20;99.90;;;;;;5017971;28;20481;-73
2022/12/08 09:23:41;;;;;;;21.65;13.02;;;1.30;99.90;;;;;;5035732;28;20442;-73
2022/12/08 09:26:07;;;;;;;21.23;12.23;;;1.30;99.90;;;;;;5035682;28;20496;-72
2022/12/08 09:28:33;;;;;;;20.08;10.52;;;1.30;99.90;;;;;;5035696;28;20124;-74
2022/12/08 09:31:00;;;;;;;19.88;11.52;;;1.20;99.90;;;;;;5017565;28;20119;-72
2022/12/08 09:33:25;;;;;;;23.40;11.90;;;1.10;99.90;;;;;;5017943;28;20128;-74
2022/12/08 09:35:51;;;;;;;22.98;13.35;;;1.10;99.90;;;;;;5035505;28;20128;-73
2022/12/08 09:38:17;;;;;;;27.00;13.15;;;1.00;99.90;;;;;;5035441;28;20527;-73
2022/12/08 09:40:50;;;;;;;26.40;13.35;;;1.10;99.90;;;;;;5035519;28;20129;-73
2022/12/08 09:44:01;;;;;;;21.92;12.88;;;1.20;99.90;;;;;;5017742;28;20033;-72
2022/12/08 09:46:30;;;;;;;25.50;13.30;;;1.20;99.90;;;;;;5035574;28;20100;-73
2022/12/08 09:48:58;;;;;;;24.63;13.05;;;1.20;99.90;;;;;;5034555;28;20041;-73
2022/12/08 09:51:36;;;;;;;24.67;13.73;;;1.30;99.90;;;;;;5035189;28;20267;-73
2022/12/08 09:54:11;;;;;;;26.40;13.82;;;1.20;99.90;;;;;;5035002;28;20044;-72
2022/12/08 09:56:37;;;;;;;26.92;14.43;;;1.20;99.90;;;;;;5035105;28;20137;-72
2022/12/08 09:59:24;;;;;;;24.38;13.32;;;1.10;99.90;;;;;;5033841;28;20130;-73
2022/12/08 10:01:50;;;;;;;24.60;13.18;;;1.10;99.90;;;;;;5033743;28;20496;-73
2022/12/08 10:04:35;;;;;;;24.48;12.90;;;1.10;99.90;;;;;;5034940;28;20048;-74
2022/12/08 10:07:15;;;;;;;25.90;14.07;;;1.10;99.90;;;;;;5035063;28;20041;-72
2022/12/08 10:10:00;;;;;;;24.58;12.50;;;1.20;99.90;;;;;;5034961;28;20045;-72
2022/12/08 10:13:02;;;;;;;27.42;12.82;;;1.10;99.90;;;;;;5017145;28;20083;-72
2022/12/08 10:15:37;;;;;;;24.17;11.70;;;1.00;99.90;;;;;;5021395;28;20484;-72
2022/12/08 10:18:28;;;;;;;24.27;12.65;;;1.20;99.90;;;;;;5034715;28;20037;-72
2022/12/08 10:20:59;;;;;;;21.13;11.50;;;1.20;99.90;;;;;;5034184;28;20055;-72
2022/12/08 10:23:33;;;;;;;;;;;1.00;99.90;;;;;;5034589;28;20128;-73
2022/12/08 10:26:06;;;;;;;26.48;13.70;;;1.00;99.90;;;;;;5017180;28;19913;-73
2022/12/08 10:28:33;;;;;;;25.70;13.43;;;1.10;99.90;;;;;;5034480;28;20045;-73
2022/12/08 10:30:59;;;;;;;23.55;12.55;;;1.20;99.90;;;;;;5020423;28;20041;-72
2022/12/08 10:33:25;;;;;;;25.70;13.50;;;1.20;99.90;;;;;;5011522;28;20040;-72
2022/12/08 10:35:53;;;;;;;28.42;14.55;;;1.20;99.90;;;;;;5034347;28;20571;-72
2022/12/08 10:38:25;;;;;;;25.15;12.88;;;1.20;99.90;;;;;;5034335;28;20045;-72
2022/12/08 10:40:53;;;;;;;25.92;13.82;;;1.20;99.90;;;;;;5034486;28;20041;-72
2022/12/08 10:43:25;;;;;;;25.20;13.23;;;1.20;99.90;;;;;;5034414;28;20500;-72
2022/12/08 10:45:51;;;;;;;30.77;18.45;;;1.20;99.90;;;;;;5034295;28;20150;-72
2022/12/08 10:48:21;;;;;;;32.33;17.35;;;1.10;99.90;;;;;;5034365;28;20522;-72
2022/12/08 10:50:56;;;;;;;29.77;14.02;;;1.20;99.90;;;;;;5016277;28;20060;-72
2022/12/08 10:53:27;;;;;;;26.30;13.05;;;1.20;99.90;;;;;;5034050;28;20033;-72
2022/12/08 10:56:02;;;;;;;;;;;1.10;99.90;;;;;;5034573;28;20025;-72
2022/12/08 10:58:39;;;;;;;24.80;13.25;;;1.00;99.90;;;;;;5033834;28;20340;-72
2022/12/08 11:01:25;;;;;;;25.90;13.70;;;0.90;99.90;;;;;;5033925;28;20052;-72
2022/12/08 11:04:01;;;;;;;29.38;13.23;;;0.90;99.90;;;;;;5016616;28;20095;-72
2022/12/08 11:06:27;;;;;;;25.48;13.00;;;1.00;99.90;;;;;;5033937;28;20072;-72
2022/12/08 11:08:55;;;;;;;28.23;13.75;;;1.10;99.90;;;;;;5033886;28;20033;-72
2022/12/08 11:11:35;;;;;;;23.40;12.65;;;1.10;99.90;;;;;;5033927;28;20056;-73
2022/12/08 11:14:06;;;;;;;23.67;12.50;;;1.00;99.90;;;;;;5030723;28;20404;-73
2022/12/08 11:16:32;;;;;;;24.25;13.18;;;1.00;99.90;;;;;;5031789;28;20045;-74
2022/12/08 11:18:58;;;;;;;23.58;12.68;;;1.00;99.90;;;;;;5014086;28;20403;-73
2022/12/08 11:21:35;;;;;;;25.60;13.13;;;1.10;99.90;;;;;;5033911;28;20030;-73
2022/12/08 11:24:29;;;;;;;26.88;13.77;;;1.10;99.90;;;;;;5034032;28;20462;-72
2022/12/08 11:27:05;;;;;;;26.30;12.85;;;1.10;99.90;;;;;;5033103;28;20037;-72
2022/12/08 11:29:33;;;;;;;27.70;13.70;;;1.10;99.90;;;;;;5033701;28;20072;-72
2022/12/08 11:32:10;;;;;;;30.33;15.65;;;1.10;99.90;;;;;;5016045;28;20037;-72
2022/12/08 11:34:47;;;;;;;27.10;14.27;;;1.10;99.90;;;;;;5033745;28;20048;-72
2022/12/08 11:37:38;;;;;;;27.73;14.57;;;1.00;99.90;;;;;;5033619;28;20040;-73
2022/12/08 11:40:06;;;;;;;;;;;1.10;99.90;;;;;;5016311;28;20160;-72
2022/12/08 11:42:42;;;;;;;28.80;14.43;;;1.10;99.90;;;;;;5033819;28;19916;-72
2022/12/08 11:45:14;;;;;;;29.50;15.50;;;1.20;99.90;;;;;;5033820;28;20041;-72
2022/12/08 11:47:45;;;;;;;21.08;11.20;;;1.30;99.90;;;;;;5033752;28;20501;-72
2022/12/08 11:50:36;;;;;;;24.33;12.75;;;1.20;99.90;;;;;;5016118;28;20468;-73
2022/12/08 11:53:05;;;;;;;24.13;12.77;;;1.20;99.90;;;;;;5015855;28;20389;-73
2022/12/08 11:55:51;;;;;;;25.75;12.55;;;1.20;99.90;;;;;;5016167;28;20092;-72
2022/12/08 11:58:33;;;;;;;25.88;13.35;;;1.20;99.90;;;;;;5033460;28;20131;-73
2022/12/08 12:01:00;;;;;;;26.88;12.85;;;1.30;99.90;;;;;;5033370;28;20056;-73
2022/12/08 12:03:40;;;;;;;26.27;13.18;;;1.30;99.90;;;;;;5016118;28;20038;-73
2022/12/08 12:06:27;;;;;;;33.80;16.10;;;1.30;99.90;;;;;;5033717;28;20049;-73
2022/12/08 12:09:12;;;;;;;33.33;15.57;;;1.30;99.90;;;;;;5015892;28;20048;-72
2022/12/08 12:12:18;;;;;;;32.13;16.08;;;1.40;99.90;;;;;;5016535;28;20041;-73
2022/12/08 12:14:55;;;;;;;29.38;15.10;;;1.50;99.90;;;;;;5037184;28;20076;-73
2022/12/08 12:17:46;;;;;;;28.23;15.40;;;1.40;99.90;;;;;;5037085;28;20076;-73
2022/12/08 12:20:15;;;;;;;34.67;17.70;;;1.40;99.90;;;;;;5037276;28;20084;-73
2022/12/08 12:22:43;;;;;;;38.85;21.60;;;1.40;99.90;;;;;;5036861;28;20130;-73
2022/12/08 12:25:17;;;;;;;65.38;38.45;;;1.50;99.90;;;;;;5036923;28;20049;-73
2022/12/08 12:27:44;;;;;;;30.85;16.27;;;1.60;99.90;;;;;;5037212;28;20037;-73
2022/12/08 12:30:22;;;;;;;30.13;16.88;;;1.60;99.90;;;;;;5036699;28;20041;-73
2022/12/08 12:33:14;;;;;;;27.77;15.57;;;1.60;99.90;;;;;;5036800;28;20362;-73
2022/12/08 12:35:46;;;;;;;36.25;16.92;;;1.70;99.90;;;;;;5036825;28;20056;-72
2022/12/08 12:41:20;;;;;;;28.35;14.27;;;1.60;99.90;;;;;;5036497;28;20044;-73
2022/12/08 12:44:11;;;;;;;31.25;15.90;;;1.50;99.90;;;;;;5036468;28;20045;-73
2022/12/08 12:46:47;;;;;;;30.50;14.45;;;1.50;99.90;;;;;;5036421;28;20091;-73
2022/12/08 12:49:50;;;;;;;31.45;15.30;;;1.50;99.90;;;;;;5036729;28;20041;-73
2022/12/08 12:52:15;;;;;;;32.20;16.80;;;1.60;99.90;;;;;;5036393;28;20044;-72
2022/12/08 12:54:43;;;;;;;31.77;16.25;;;1.60;99.90;;;;;;5036394;28;20030;-73
2022/12/08 12:57:12;;;;;;;32.80;16.17;;;1.60;99.90;;;;;;5036371;28;20037;-73
2022/12/08 12:59:44;;;;;;;33.97;17.40;;;1.50;99.90;;;;;;5036506;28;20052;-72
2022/12/08 13:02:23;;;;;;;29.67;16.58;;;1.50;99.90;;;;;;5036047;28;20366;-73
2022/12/08 13:05:07;;;;;;;34.38;17.15;;;1.50;99.90;;;;;;5036244;28;20500;-73
2022/12/08 13:07:41;;;;;;;32.50;16.17;;;1.50;99.90;;;;;;5018513;28;20045;-74
2022/12/08 13:10:30;;;;;;;34.72;17.38;;;1.40;99.90;;;;;;5036139;28;20041;-73